createdAt,value
2023-05-04T00:00:13.945Z,99.90
2023-05-04T00:02:43.074Z,99.90
2023-05-04T00:05:12.029Z,99.90
2023-05-04T00:07:38.894Z,99.90
2023-05-04T00:10:06.741Z,99.90
2023-05-04T00:12:33.650Z,99.90
2023-05-04T00:15:01.815Z,99.90
2023-05-04T00:17:28.577Z,99.90
2023-05-04T00:19:55.313Z,99.90
2023-05-04T00:22:22.078Z,99.90
2023-05-04T00:24:48.889Z,99.90
2023-05-04T00:27:15.624Z,99.90
2023-05-04T00:29:42.380Z,99.90
2023-05-04T00:32:09.735Z,99.90
2023-05-04T00:34:36.502Z,99.90
2023-05-04T00:37:03.277Z,99.90
2023-05-04T00:39:30.014Z,99.90
2023-05-04T00:41:56.780Z,99.90
2023-05-04T00:44:23.759Z,99.90
2023-05-04T00:46:52.847Z,99.90
2023-05-04T00:49:21.327Z,99.90
2023-05-04T00:51:49.618Z,99.90
2023-05-04T00:54:20.340Z,99.90
2023-05-04T00:56:47.824Z,99.90
2023-05-04T00:59:15.818Z,99.90
2023-05-04T01:01:43.051Z,99.90
2023-05-04T01:04:10.672Z,99.90
2023-05-04T01:06:50.261Z,99.90
2023-05-04T01:09:39.657Z,99.90
2023-05-04T01:12:08.294Z,99.90
2023-05-04T01:14:36.292Z,99.90
2023-05-04T01:17:08.104Z,99.90
2023-05-04T01:19:35.864Z,99.90
2023-05-04T01:22:02.620Z,99.90
2023-05-04T01:24:30.726Z,99.90
2023-05-04T01:27:18.187Z,99.90
2023-05-04T01:30:13.757Z,99.90
2023-05-04T01:32:42.063Z,99.90
2023-05-04T01:35:11.537Z,99.90
2023-05-04T01:37:38.366Z,99.90
2023-05-04T01:40:07.090Z,99.90
2023-05-04T01:42:34.952Z,99.90
2023-05-04T01:45:01.856Z,99.90
2023-05-04T01:47:28.627Z,99.90
2023-05-04T01:49:55.406Z,99.90
2023-05-04T01:52:22.367Z,99.90
2023-05-04T01:54:49.090Z,99.90
2023-05-04T01:57:15.866Z,99.90
2023-05-04T01:59:42.614Z,99.90
2023-05-04T02:02:09.424Z,99.90
2023-05-04T02:04:36.158Z,99.90
2023-05-04T02:07:02.870Z,99.90
2023-05-04T02:09:29.665Z,99.90
2023-05-04T02:11:56.444Z,99.90
2023-05-04T02:14:23.154Z,99.90
2023-05-04T02:16:49.908Z,99.90
2023-05-04T02:19:16.631Z,99.90
2023-05-04T02:21:43.402Z,99.90
2023-05-04T02:24:10.296Z,99.90
2023-05-04T02:26:37.180Z,99.90
2023-05-04T02:29:05.233Z,99.90
2023-05-04T02:31:35.099Z,99.90
2023-05-04T02:34:02.029Z,99.90
2023-05-04T02:36:28.809Z,99.90
2023-05-04T02:38:55.917Z,99.90
2023-05-04T02:41:22.696Z,99.90
2023-05-04T02:43:49.464Z,99.90
2023-05-04T02:46:16.235Z,99.90
2023-05-04T02:48:43.118Z,99.90
2023-05-04T02:51:10.052Z,99.90
2023-05-04T02:53:37.981Z,99.90
2023-05-04T02:56:05.019Z,99.90
2023-05-04T02:58:31.791Z,99.90
2023-05-04T03:00:59.626Z,99.90
2023-05-04T03:03:26.796Z,99.90
2023-05-04T03:05:53.547Z,99.90
2023-05-04T03:08:20.349Z,99.90
2023-05-04T03:10:47.083Z,99.90
2023-05-04T03:13:13.926Z,99.90
2023-05-04T03:15:40.794Z,99.90
2023-05-04T03:18:07.585Z,99.90
2023-05-04T03:20:34.712Z,99.90
2023-05-04T03:23:01.503Z,99.90
2023-05-04T03:25:28.281Z,99.90
2023-05-04T03:27:55.057Z,99.90
2023-05-04T03:30:21.892Z,99.90
2023-05-04T03:32:49.933Z,99.90
2023-05-04T03:35:24.327Z,99.90
2023-05-04T03:37:51.482Z,99.90
2023-05-04T03:40:22.763Z,99.90
2023-05-04T03:42:52.170Z,99.90
2023-05-04T03:45:19.098Z,99.90
2023-05-04T03:47:45.987Z,99.90
2023-05-04T03:50:13.260Z,99.90
2023-05-04T03:52:40.386Z,99.90
2023-05-04T03:55:07.824Z,99.90
2023-05-04T03:57:34.636Z,99.90
2023-05-04T04:00:01.377Z,99.90
2023-05-04T04:02:28.259Z,99.90
2023-05-04T04:04:55.078Z,99.90
2023-05-04T04:07:21.782Z,99.90
2023-05-04T04:09:48.479Z,99.90
2023-05-04T04:12:18.252Z,99.90
2023-05-04T04:14:45.239Z,99.90
2023-05-04T04:17:11.985Z,99.90
2023-05-04T04:19:38.692Z,99.90
2023-05-04T04:22:05.464Z,99.90
2023-05-04T04:24:32.192Z,99.90
2023-05-04T04:26:59.976Z,99.90
2023-05-04T04:29:27.171Z,99.90
2023-05-04T04:31:54.079Z,99.90
2023-05-04T04:34:20.873Z,99.90
2023-05-04T04:36:47.704Z,99.90
2023-05-04T04:39:17.020Z,99.90
2023-05-04T04:41:43.921Z,99.90
2023-05-04T04:44:11.604Z,99.90
2023-05-04T04:46:38.748Z,99.90
2023-05-04T04:49:05.613Z,99.90
2023-05-04T04:51:32.573Z,99.90
2023-05-04T04:53:59.357Z,99.90
2023-05-04T04:56:26.355Z,99.90
2023-05-04T04:58:53.282Z,99.90
2023-05-04T05:01:20.056Z,99.90
2023-05-04T05:03:47.069Z,99.90
2023-05-04T05:06:14.232Z,99.90
2023-05-04T05:08:41.678Z,99.90
2023-05-04T05:11:08.479Z,99.90
2023-05-04T05:13:35.225Z,99.90
2023-05-04T05:16:02.027Z,99.90
2023-05-04T05:18:29.201Z,99.90
2023-05-04T05:20:56.480Z,99.90
2023-05-04T05:23:23.252Z,99.90
2023-05-04T05:25:50.020Z,99.90
2023-05-04T05:28:17.796Z,99.90
2023-05-04T05:30:44.901Z,99.90
2023-05-04T05:33:11.812Z,99.90
2023-05-04T05:35:38.575Z,99.90
2023-05-04T05:38:05.381Z,99.90
2023-05-04T05:40:32.580Z,99.90
2023-05-04T05:42:59.356Z,99.90
2023-05-04T05:45:26.279Z,99.90
2023-05-04T05:47:53.084Z,99.90
2023-05-04T05:50:20.436Z,99.90
2023-05-04T05:52:47.238Z,99.90
2023-05-04T05:55:14.036Z,99.90
2023-05-04T05:57:40.738Z,99.90
2023-05-04T06:00:08.866Z,99.90
2023-05-04T06:02:35.684Z,99.90
2023-05-04T06:05:02.543Z,99.90
2023-05-04T06:07:29.456Z,99.90
2023-05-04T06:09:56.615Z,99.90
2023-05-04T06:12:23.409Z,99.90
2023-05-04T06:14:50.193Z,99.90
2023-05-04T06:17:18.545Z,99.90
2023-05-04T06:19:46.408Z,99.90
2023-05-04T06:22:14.625Z,99.90
2023-05-04T06:24:41.569Z,99.90
2023-05-04T06:27:08.638Z,99.90
2023-05-04T06:29:38.162Z,99.90
2023-05-04T06:32:05.482Z,99.90
2023-05-04T06:34:32.329Z,99.90
2023-05-04T06:36:59.090Z,99.90
2023-05-04T06:39:25.912Z,99.90
2023-05-04T06:41:55.714Z,99.90
2023-05-04T06:44:22.781Z,99.90
2023-05-04T06:46:49.607Z,99.90
2023-05-04T06:49:17.883Z,99.90
2023-05-04T06:51:44.662Z,99.90
2023-05-04T06:54:12.274Z,99.90
2023-05-04T06:56:39.618Z,99.90
2023-05-04T06:59:07.014Z,99.90
2023-05-04T07:01:34.117Z,99.90
2023-05-04T07:04:01.854Z,99.90
2023-05-04T07:06:29.448Z,99.90
2023-05-04T07:08:56.981Z,99.90
2023-05-04T07:11:23.759Z,99.90
2023-05-04T07:13:50.579Z,99.90
2023-05-04T07:16:17.366Z,99.90
2023-05-04T07:18:44.256Z,99.90
2023-05-04T07:21:26.665Z,99.90
2023-05-04T07:23:54.963Z,99.90
2023-05-04T07:26:22.688Z,99.90
2023-05-04T07:28:49.663Z,99.90
2023-05-04T07:31:16.392Z,99.90
2023-05-04T07:33:43.536Z,99.90
2023-05-04T07:36:10.349Z,99.90
2023-05-04T07:38:37.347Z,99.90
2023-05-04T07:41:04.139Z,99.90
2023-05-04T07:43:30.950Z,99.90
2023-05-04T07:45:57.745Z,99.90
2023-05-04T07:48:26.426Z,99.90
2023-05-04T07:50:53.934Z,99.90
2023-05-04T07:53:21.004Z,99.90
2023-05-04T07:55:48.527Z,99.90
2023-05-04T07:58:16.475Z,99.90
2023-05-04T08:00:43.366Z,99.90
2023-05-04T08:03:10.255Z,99.90
2023-05-04T08:05:37.076Z,99.90
2023-05-04T08:08:03.888Z,99.90
2023-05-04T08:10:30.871Z,99.90
2023-05-04T08:12:58.188Z,99.90
2023-05-04T08:15:24.984Z,99.90
2023-05-04T08:17:51.747Z,99.90
2023-05-04T08:20:18.619Z,99.90
2023-05-04T08:22:46.237Z,99.90
2023-05-04T08:25:15.666Z,99.90
2023-05-04T08:27:42.425Z,99.90
2023-05-04T08:30:10.104Z,99.90
2023-05-04T08:32:36.880Z,99.90
2023-05-04T08:35:04.109Z,99.90
2023-05-04T08:37:31.021Z,99.90
2023-05-04T08:39:57.762Z,99.90
2023-05-04T08:42:29.928Z,99.90
2023-05-04T08:44:57.910Z,99.90
2023-05-04T08:47:27.895Z,99.90
2023-05-04T08:49:56.247Z,99.90
2023-05-04T08:52:25.349Z,99.90
2023-05-04T08:54:56.064Z,99.90
2023-05-04T08:57:26.423Z,99.90
2023-05-04T08:59:55.164Z,99.90
2023-05-04T09:02:23.896Z,99.90
2023-05-04T09:04:54.097Z,99.90
2023-05-04T09:07:22.075Z,99.90
2023-05-04T09:09:51.480Z,99.90
2023-05-04T09:12:19.040Z,99.90
2023-05-04T09:14:46.464Z,99.90
2023-05-04T09:17:25.315Z,99.90
2023-05-04T09:20:02.989Z,99.90
2023-05-04T09:22:30.879Z,99.90
2023-05-04T09:25:12.865Z,99.90
2023-05-04T09:27:41.345Z,99.90
2023-05-04T09:30:09.197Z,99.90
2023-05-04T09:32:51.717Z,99.90
2023-05-04T09:35:33.680Z,99.90
2023-05-04T09:38:01.677Z,99.90
2023-05-04T09:40:38.293Z,99.90
2023-05-04T09:43:06.522Z,99.90
2023-05-04T09:45:44.468Z,99.90
2023-05-04T09:48:31.027Z,99.90
2023-05-04T09:50:59.677Z,99.90
2023-05-04T09:53:31.508Z,99.90
2023-05-04T09:56:17.036Z,99.90
2023-05-04T09:58:45.586Z,99.90
2023-05-04T10:01:12.448Z,99.90
2023-05-04T10:03:40.873Z,99.10
2023-05-04T10:06:09.403Z,99.90
2023-05-04T10:08:37.220Z,99.00
2023-05-04T10:11:04.672Z,99.90
2023-05-04T10:13:31.575Z,97.80
2023-05-04T10:16:04.625Z,95.40
2023-05-04T10:18:51.381Z,96.10
2023-05-04T10:21:31.755Z,94.60
2023-05-04T10:24:42.988Z,99.90
2023-05-04T10:27:17.617Z,99.90
2023-05-04T10:29:50.589Z,99.90
2023-05-04T10:32:19.950Z,99.90
2023-05-04T10:34:46.826Z,93.80
2023-05-04T10:37:19.470Z,99.90
2023-05-04T10:39:53.917Z,99.90
2023-05-04T10:42:21.668Z,96.50
2023-05-04T10:44:57.872Z,99.90
2023-05-04T10:47:33.505Z,92.30
2023-05-04T10:50:12.210Z,99.30
2023-05-04T10:52:53.740Z,99.90
2023-05-04T10:55:22.320Z,97.20
2023-05-04T10:57:55.903Z,98.90
2023-05-04T11:00:31.054Z,96.00
2023-05-04T11:03:03.975Z,83.50
2023-05-04T11:05:46.824Z,86.50
2023-05-04T11:08:24.937Z,91.80
2023-05-04T11:11:09.069Z,94.70
2023-05-04T11:13:47.159Z,91.00
2023-05-04T11:16:23.900Z,92.20
2023-05-04T11:18:50.754Z,92.50
2023-05-04T11:21:25.614Z,93.30
2023-05-04T11:23:59.770Z,93.60
2023-05-04T11:26:28.526Z,96.10
2023-05-04T11:28:55.500Z,90.80
2023-05-04T11:31:22.395Z,92.30
2023-05-04T11:33:54.666Z,95.20
2023-05-04T11:36:22.557Z,92.80
2023-05-04T11:38:49.768Z,88.30
2023-05-04T11:41:16.826Z,79.10
2023-05-04T11:43:45.397Z,81.00
2023-05-04T11:46:14.184Z,79.70
2023-05-04T11:48:41.503Z,81.90
2023-05-04T11:51:08.573Z,72.70
2023-05-04T11:53:39.693Z,76.10
2023-05-04T11:56:11.041Z,71.00
2023-05-04T11:58:38.006Z,69.70
2023-05-04T12:01:07.068Z,72.50
2023-05-04T12:06:05.015Z,67.00
2023-05-04T12:08:41.901Z,64.60
2023-05-04T12:11:28.996Z,62.30
2023-05-04T12:14:09.930Z,66.00
2023-05-04T12:16:38.328Z,65.60
2023-05-04T12:19:15.511Z,61.10
2023-05-04T12:21:53.623Z,69.40
2023-05-04T12:24:27.887Z,67.10
2023-05-04T12:26:54.738Z,64.40
2023-05-04T12:29:23.001Z,62.50
2023-05-04T12:31:49.955Z,65.20
2023-05-04T12:34:16.927Z,65.80
2023-05-04T12:36:44.362Z,65.50
2023-05-04T12:39:11.354Z,58.80
2023-05-04T12:41:38.124Z,60.40
2023-05-04T12:44:05.030Z,60.90
2023-05-04T12:46:31.964Z,62.60
2023-05-04T12:48:58.775Z,64.70
2023-05-04T12:51:26.547Z,62.10
2023-05-04T12:53:53.370Z,61.00
2023-05-04T12:56:20.124Z,62.70
2023-05-04T12:58:46.955Z,61.20
2023-05-04T13:01:13.757Z,60.30
2023-05-04T13:03:40.748Z,55.60
2023-05-04T13:06:08.838Z,61.50
2023-05-04T13:08:35.597Z,62.10
2023-05-04T13:11:02.372Z,62.20
2023-05-04T13:13:31.572Z,62.10
2023-05-04T13:15:58.455Z,53.30
2023-05-04T13:18:27.953Z,51.90
2023-05-04T13:20:55.621Z,57.30
2023-05-04T13:23:23.035Z,62.20
2023-05-04T13:25:50.797Z,59.40
2023-05-04T13:28:18.196Z,61.60
2023-05-04T13:30:45.142Z,60.20
2023-05-04T13:33:25.054Z,57.80
2023-05-04T13:36:01.766Z,55.80
2023-05-04T13:38:28.521Z,57.80
2023-05-04T13:40:55.715Z,60.30
2023-05-04T13:43:22.679Z,60.80
2023-05-04T13:45:49.486Z,62.20
2023-05-04T13:48:16.668Z,62.20
2023-05-04T13:50:43.447Z,57.00
2023-05-04T13:53:11.132Z,55.80
2023-05-04T13:55:38.362Z,57.00
2023-05-04T13:58:05.142Z,60.10
2023-05-04T14:00:32.548Z,59.20
2023-05-04T14:02:59.472Z,62.70
2023-05-04T14:05:26.352Z,65.10
2023-05-04T14:07:53.081Z,59.70
2023-05-04T14:10:19.794Z,58.90
2023-05-04T14:12:47.074Z,57.90
2023-05-04T14:15:13.844Z,56.60
2023-05-04T14:17:40.563Z,56.80
2023-05-04T14:20:08.778Z,55.80
2023-05-04T14:22:38.074Z,61.60
2023-05-04T14:25:06.014Z,57.60
2023-05-04T14:27:35.870Z,59.70
2023-05-04T14:30:03.949Z,58.70
2023-05-04T14:32:30.842Z,58.10
2023-05-04T14:35:06.425Z,56.20
2023-05-04T14:37:37.401Z,59.00
2023-05-04T14:40:09.203Z,62.10
2023-05-04T14:42:37.180Z,61.20
2023-05-04T14:45:05.424Z,63.70
2023-05-04T14:47:33.619Z,62.10
2023-05-04T14:50:04.042Z,61.20
2023-05-04T14:52:31.468Z,66.30
2023-05-04T14:54:58.215Z,64.20
2023-05-04T14:57:24.917Z,64.50
2023-05-04T14:59:52.068Z,59.60
2023-05-04T15:02:20.770Z,62.40
2023-05-04T15:04:47.493Z,68.50
2023-05-04T15:07:15.989Z,67.30
2023-05-04T15:09:42.787Z,65.10
2023-05-04T15:12:10.292Z,66.50
2023-05-04T15:14:37.578Z,69.80
2023-05-04T15:17:05.109Z,63.40
2023-05-04T15:19:31.937Z,67.20
2023-05-04T15:21:58.650Z,64.60
2023-05-04T15:24:25.511Z,67.60
2023-05-04T15:26:52.229Z,61.40
2023-05-04T15:29:19.058Z,62.40
2023-05-04T15:31:45.898Z,61.00
2023-05-04T15:34:12.729Z,60.40
2023-05-04T15:36:39.471Z,65.90
2023-05-04T15:39:08.176Z,67.60
2023-05-04T15:41:35.849Z,69.30
2023-05-04T15:44:06.614Z,69.70
2023-05-04T15:46:34.212Z,70.40
2023-05-04T15:49:01.102Z,73.40
2023-05-04T15:51:29.593Z,76.60
2023-05-04T15:53:56.313Z,72.40
2023-05-04T15:56:23.192Z,72.20
2023-05-04T15:58:49.977Z,70.30
2023-05-04T16:01:16.761Z,72.00
2023-05-04T16:03:43.724Z,74.00
2023-05-04T16:06:12.461Z,70.70
2023-05-04T16:08:39.517Z,67.50
2023-05-04T16:11:07.719Z,67.90
2023-05-04T16:13:35.057Z,70.10
2023-05-04T16:16:01.965Z,70.90
2023-05-04T16:18:28.760Z,68.50
2023-05-04T16:20:55.687Z,66.80
2023-05-04T16:23:24.820Z,71.40
2023-05-04T16:25:51.882Z,70.40
2023-05-04T16:28:18.710Z,70.50
2023-05-04T16:30:45.759Z,72.20
2023-05-04T16:33:12.954Z,71.90
2023-05-04T16:35:39.777Z,72.50
2023-05-04T16:38:06.835Z,73.20
2023-05-04T16:40:33.694Z,71.40
2023-05-04T16:43:00.627Z,73.70
2023-05-04T16:45:33.518Z,73.80
2023-05-04T16:48:00.846Z,73.30
2023-05-04T16:50:27.633Z,73.10
2023-05-04T16:52:54.416Z,72.80
2023-05-04T16:55:21.362Z,72.40
2023-05-04T16:57:48.694Z,71.00
2023-05-04T17:00:17.002Z,72.40
2023-05-04T17:02:43.870Z,73.90
2023-05-04T17:05:10.901Z,73.40
2023-05-04T17:07:39.561Z,73.00
2023-05-04T17:10:09.883Z,70.60
2023-05-04T17:12:36.779Z,69.90
2023-05-04T17:15:04.287Z,70.20
2023-05-04T17:17:31.202Z,68.60
2023-05-04T17:19:58.058Z,66.10
2023-05-04T17:22:25.282Z,63.90
2023-05-04T17:24:52.353Z,63.00
2023-05-04T17:27:19.107Z,65.60
2023-05-04T17:29:45.932Z,66.20
2023-05-04T17:32:12.721Z,67.80
2023-05-04T17:34:39.522Z,68.50
2023-05-04T17:37:06.346Z,71.60
2023-05-04T17:39:33.090Z,73.20
2023-05-04T17:41:59.953Z,76.50
2023-05-04T17:44:28.660Z,78.40
2023-05-04T17:46:55.840Z,79.80
2023-05-04T17:49:22.609Z,82.70
2023-05-04T17:51:49.409Z,85.40
2023-05-04T17:54:16.680Z,88.70
2023-05-04T17:56:43.816Z,91.10
2023-05-04T17:59:10.613Z,93.00
2023-05-04T18:01:37.516Z,94.50
2023-05-04T18:04:04.508Z,96.50
2023-05-04T18:06:32.740Z,98.30
2023-05-04T18:09:00.942Z,99.90
2023-05-04T18:11:28.183Z,99.90
2023-05-04T18:13:56.346Z,99.90
2023-05-04T18:16:24.351Z,99.90
2023-05-04T18:18:51.939Z,99.90
2023-05-04T18:21:18.769Z,99.90
2023-05-04T18:23:46.089Z,99.90
2023-05-04T18:26:22.544Z,99.90
2023-05-04T18:28:49.657Z,99.90
2023-05-04T18:31:16.505Z,99.90
2023-05-04T18:33:45.020Z,99.90
2023-05-04T18:36:11.963Z,99.90
2023-05-04T18:38:39.381Z,99.90
2023-05-04T18:41:06.712Z,99.90
2023-05-04T18:43:33.484Z,99.90
2023-05-04T18:46:07.561Z,99.90
2023-05-04T18:48:34.551Z,99.90
2023-05-04T18:51:01.966Z,99.90
2023-05-04T18:53:28.704Z,99.90
2023-05-04T18:56:06.077Z,99.90
2023-05-04T18:58:33.454Z,99.90
2023-05-04T19:01:00.341Z,99.90
2023-05-04T19:03:27.383Z,99.90
2023-05-04T19:05:54.714Z,99.90
2023-05-04T19:08:21.580Z,99.90
2023-05-04T19:10:49.280Z,99.90
2023-05-04T19:13:16.755Z,99.90
2023-05-04T19:15:44.009Z,99.90
2023-05-04T19:18:11.817Z,99.90
2023-05-04T19:20:39.988Z,99.90
2023-05-04T19:23:06.866Z,99.90
2023-05-04T19:25:34.661Z,99.90
2023-05-04T19:28:08.733Z,99.90
2023-05-04T19:30:39.449Z,99.90
2023-05-04T19:33:09.362Z,99.90
2023-05-04T19:35:36.333Z,99.90
2023-05-04T19:38:06.025Z,99.90
2023-05-04T19:40:33.997Z,99.90
2023-05-04T19:43:01.028Z,99.90
2023-05-04T19:45:27.962Z,99.90
2023-05-04T19:47:54.746Z,99.90
2023-05-04T19:50:22.134Z,99.90
2023-05-04T19:52:50.998Z,99.90
2023-05-04T19:55:17.780Z,99.90
2023-05-04T19:57:44.599Z,99.90
2023-05-04T20:00:12.584Z,99.90
2023-05-04T20:02:43.086Z,99.90
2023-05-04T20:05:09.928Z,99.90
2023-05-04T20:07:36.998Z,99.90
2023-05-04T20:10:08.445Z,99.90
2023-05-04T20:12:35.544Z,99.90
2023-05-04T20:15:02.427Z,99.90
2023-05-04T20:17:29.450Z,99.90
2023-05-04T20:19:56.431Z,99.90
2023-05-04T20:22:23.187Z,99.90
2023-05-04T20:24:50.255Z,99.90
2023-05-04T20:27:16.965Z,99.90
2023-05-04T20:29:43.649Z,99.90
2023-05-04T20:32:10.676Z,99.90
2023-05-04T20:34:39.393Z,99.90
2023-05-04T20:37:06.390Z,99.90
2023-05-04T20:39:34.249Z,99.90
2023-05-04T20:42:01.285Z,99.90
2023-05-04T20:44:28.037Z,99.90
2023-05-04T20:46:54.765Z,99.90
2023-05-04T20:49:21.460Z,99.90
2023-05-04T20:51:48.150Z,99.90
2023-05-04T20:54:14.902Z,99.90
2023-05-04T20:56:41.887Z,99.90
2023-05-04T20:59:08.611Z,99.90
2023-05-04T21:01:38.473Z,99.90
2023-05-04T21:04:05.369Z,99.90
2023-05-04T21:06:32.064Z,99.90
2023-05-04T21:08:58.810Z,99.90
2023-05-04T21:11:25.620Z,99.90
2023-05-04T21:13:52.573Z,99.90
2023-05-04T21:16:19.396Z,99.90
2023-05-04T21:18:46.194Z,99.90
2023-05-04T21:21:12.973Z,99.90
2023-05-04T21:23:39.761Z,99.90
2023-05-04T21:26:06.799Z,99.90
2023-05-04T21:28:33.586Z,99.90
2023-05-04T21:31:00.617Z,99.90
2023-05-04T21:33:27.426Z,99.90
2023-05-04T21:35:54.321Z,99.90
2023-05-04T21:38:22.183Z,99.90
2023-05-04T21:40:49.059Z,99.90
2023-05-04T21:43:15.820Z,99.90
2023-05-04T21:45:42.631Z,99.90
2023-05-04T21:48:09.344Z,99.90
2023-05-04T21:50:36.143Z,99.90
2023-05-04T21:53:03.203Z,99.90
2023-05-04T21:55:30.400Z,99.90
2023-05-04T21:57:57.284Z,99.90
2023-05-04T22:00:24.273Z,99.90
2023-05-04T22:02:54.647Z,99.90
2023-05-04T22:05:22.374Z,99.90
2023-05-04T22:07:49.931Z,99.90
2023-05-04T22:10:17.200Z,99.90
2023-05-04T22:12:43.932Z,99.90
2023-05-04T22:15:11.231Z,99.90
2023-05-04T22:17:38.041Z,99.90
2023-05-04T22:20:06.088Z,99.90
2023-05-04T22:22:32.958Z,99.90
2023-05-04T22:24:59.987Z,99.90
2023-05-04T22:27:26.802Z,99.90
2023-05-04T22:29:53.599Z,99.90
2023-05-04T22:32:20.354Z,99.90
2023-05-04T22:34:47.063Z,99.90
2023-05-04T22:37:13.788Z,99.90
2023-05-04T22:39:40.554Z,99.90
2023-05-04T22:42:07.618Z,99.90
2023-05-04T22:44:34.615Z,99.90
2023-05-04T22:47:01.442Z,99.90
2023-05-04T22:49:28.195Z,99.90
2023-05-04T22:51:54.979Z,99.90
2023-05-04T22:54:21.980Z,99.90
2023-05-04T22:56:48.772Z,99.90
2023-05-04T22:59:15.528Z,99.90
2023-05-04T23:01:44.200Z,99.90
2023-05-04T23:04:11.488Z,99.90
2023-05-04T23:06:38.627Z,99.90
2023-05-04T23:09:05.517Z,99.90
2023-05-04T23:11:32.372Z,99.90
2023-05-04T23:13:59.329Z,99.90
2023-05-04T23:16:26.111Z,99.90
2023-05-04T23:18:52.899Z,99.90
2023-05-04T23:21:19.654Z,99.90
2023-05-04T23:23:50.086Z,99.90
2023-05-04T23:26:16.837Z,99.90
2023-05-04T23:28:43.849Z,99.90
2023-05-04T23:31:11.331Z,99.90
2023-05-04T23:33:38.182Z,99.90
2023-05-04T23:36:05.053Z,99.90
2023-05-04T23:38:31.769Z,99.90
2023-05-04T23:41:01.018Z,99.90
2023-05-04T23:43:27.782Z,99.90
2023-05-04T23:46:04.809Z,99.90
2023-05-04T23:48:32.505Z,99.90
2023-05-04T23:51:04.500Z,99.90
2023-05-04T23:53:32.235Z,99.90
2023-05-04T23:56:04.232Z,99.90
2023-05-04T23:58:32.333Z,99.90
